Jumpertown, Mississippi
Current Conditions -  °F | °C
As of 9:35 AM on Monday 24 Nov 2014 (Local Time) from KCRX Reporting Station
Broken Clouds Broken Clouds  
Wind Chill: 54°   Ceiling: 2600
Heat Index: 54°   Visibility: 10mi
Dew Point: 41°   Wind: 13mph
Humidity: 62%   Direction: 280°W
Pressure: 29.84"   Gusts: 18mph
Location:  34.6741°N, 88.5234°W
Report Text: KCRX 241535Z AUTO 28011G16KT 10SM BKN026 12/05 A2984 RMK AO2
Loading
Personal Weather Stations






























Interactive Weather Map New forecast layout! Learn more

10-Day Weather Forecast

Advertisements
Track Severe Weather on mobile